sensor_id;sensor_type;location;lat;lon;timestamp;pressure;altitude;pressure_sealevel;temperature;humidity
21300;BME280;10809;49.476;11.016;2023-08-08T00:00:49;98330.44;;;12.31;66.99
21300;BME280;10809;49.476;11.016;2023-08-08T00:03:22;98325.03;;;12.33;66.99
21300;BME280;10809;49.476;11.016;2023-08-08T00:05:59;98332.16;;;12.32;67.02
21300;BME280;10809;49.476;11.016;2023-08-08T00:08:29;98334.81;;;12.32;66.91
21300;BME280;10809;49.476;11.016;2023-08-08T00:11:00;98336.50;;;12.33;67.03
21300;BME280;10809;49.476;11.016;2023-08-08T00:13:30;98332.06;;;12.34;66.81
21300;BME280;10809;49.476;11.016;2023-08-08T00:16:07;98331.22;;;12.33;67.02
21300;BME280;10809;49.476;11.016;2023-08-08T00:18:40;98326.75;;;12.34;66.97
21300;BME280;10809;49.476;11.016;2023-08-08T00:21:17;98326.66;;;12.35;66.96
21300;BME280;10809;49.476;11.016;2023-08-08T00:23:47;98320.50;;;12.35;66.97
21300;BME280;10809;49.476;11.016;2023-08-08T00:26:18;98325.81;;;12.35;67.07
21300;BME280;10809;49.476;11.016;2023-08-08T00:28:48;98321.44;;;12.34;67.01
21300;BME280;10809;49.476;11.016;2023-08-08T00:31:19;98324.94;;;12.34;66.95
21300;BME280;10809;49.476;11.016;2023-08-08T00:33:50;98323.13;;;12.35;67.14
21300;BME280;10809;49.476;11.016;2023-08-08T00:36:20;98319.53;;;12.36;66.84
21300;BME280;10809;49.476;11.016;2023-08-08T00:38:54;98320.50;;;12.35;67.04
21300;BME280;10809;49.476;11.016;2023-08-08T00:41:25;98308.06;;;12.35;67.05
21300;BME280;10809;49.476;11.016;2023-08-08T00:43:59;98309.88;;;12.35;66.90
21300;BME280;10809;49.476;11.016;2023-08-08T00:46:29;98312.53;;;12.35;66.97
21300;BME280;10809;49.476;11.016;2023-08-08T00:49:00;98305.50;;;12.34;66.85
21300;BME280;10809;49.476;11.016;2023-08-08T00:51:31;98312.53;;;12.35;67.06
21300;BME280;10809;49.476;11.016;2023-08-08T00:54:05;98314.22;;;12.36;66.90
21300;BME280;10809;49.476;11.016;2023-08-08T00:56:38;98308.91;;;12.36;66.81
21300;BME280;10809;49.476;11.016;2023-08-08T00:59:11;98298.28;;;12.36;66.95
21300;BME280;10809;49.476;11.016;2023-08-08T01:01:42;98321.34;;;12.35;67.46
21300;BME280;10809;49.476;11.016;2023-08-08T01:04:19;98311.56;;;12.36;66.81
21300;BME280;10809;49.476;11.016;2023-08-08T01:09:49;98303.53;;;12.37;67.00
21300;BME280;10809;49.476;11.016;2023-08-08T01:12:24;98298.22;;;12.37;67.05
21300;BME280;10809;49.476;11.016;2023-08-08T01:14:57;98303.44;;;12.39;66.97
21300;BME280;10809;49.476;11.016;2023-08-08T01:17:28;98304.31;;;12.39;66.99
21300;BME280;10809;49.476;11.016;2023-08-08T01:20:17;98302.50;;;12.40;67.04
21300;BME280;10809;49.476;11.016;2023-08-08T01:22:57;98305.06;;;12.41;67.08
21300;BME280;10809;49.476;11.016;2023-08-08T01:25:30;98304.09;;;12.42;67.03
21300;BME280;10809;49.476;11.016;2023-08-08T01:28:04;98302.31;;;12.43;67.08
21300;BME280;10809;49.476;11.016;2023-08-08T01:30:36;98293.50;;;12.42;66.84
21300;BME280;10809;49.476;11.016;2023-08-08T01:33:09;98290.72;;;12.44;66.98
21300;BME280;10809;49.476;11.016;2023-08-08T01:38:48;98294.25;;;12.44;66.87
21300;BME280;10809;49.476;11.016;2023-08-08T01:41:23;98285.41;;;12.44;67.02
21300;BME280;10809;49.476;11.016;2023-08-08T01:43:54;98290.72;;;12.44;66.89
21300;BME280;10809;49.476;11.016;2023-08-08T01:46:25;98295.13;;;12.45;67.09
21300;BME280;10809;49.476;11.016;2023-08-08T01:48:58;98297.78;;;12.45;67.15
21300;BME280;10809;49.476;11.016;2023-08-08T01:51:29;98295.13;;;12.45;66.78
21300;BME280;10809;49.476;11.016;2023-08-08T01:54:00;98292.47;;;12.45;66.94
21300;BME280;10809;49.476;11.016;2023-08-08T01:56:31;98298.69;;;12.44;66.91
21300;BME280;10809;49.476;11.016;2023-08-08T01:59:03;98293.38;;;12.44;66.95
21300;BME280;10809;49.476;11.016;2023-08-08T02:01:33;98293.38;;;12.44;66.79
21300;BME280;10809;49.476;11.016;2023-08-08T02:04:04;98297.88;;;12.43;66.93
21300;BME280;10809;49.476;11.016;2023-08-08T02:06:34;98289.13;;;12.41;66.91
21300;BME280;10809;49.476;11.016;2023-08-08T02:09:06;98289.13;;;12.41;67.03
21300;BME280;10809;49.476;11.016;2023-08-08T02:11:39;98290.09;;;12.40;66.69
21300;BME280;10809;49.476;11.016;2023-08-08T02:14:12;98289.22;;;12.40;66.86
21300;BME280;10809;49.476;11.016;2023-08-08T02:16:43;98290.16;;;12.39;67.02
21300;BME280;10809;49.476;11.016;2023-08-08T02:19:17;98291.88;;;12.40;67.02
21300;BME280;10809;49.476;11.016;2023-08-08T02:21:48;98290.16;;;12.39;66.85
21300;BME280;10809;49.476;11.016;2023-08-08T02:24:25;98289.22;;;12.40;67.13
21300;BME280;10809;49.476;11.016;2023-08-08T02:26:55;98302.50;;;12.40;67.12
21300;BME280;10809;49.476;11.016;2023-08-08T02:29:26;98294.53;;;12.40;67.02
21300;BME280;10809;49.476;11.016;2023-08-08T02:31:56;98299.84;;;12.40;67.01
21300;BME280;10809;49.476;11.016;2023-08-08T02:34:29;98299.94;;;12.38;67.04
21300;BME280;10809;49.476;11.016;2023-08-08T02:37:09;98299.09;;;12.38;67.06
21300;BME280;10809;49.476;11.016;2023-08-08T02:39:42;98297.34;;;12.37;67.04
21300;BME280;10809;49.476;11.016;2023-08-08T02:42:13;98295.63;;;12.36;66.98
21300;BME280;10809;49.476;11.016;2023-08-08T02:44:43;98302.88;;;12.34;67.04
21300;BME280;10809;49.476;11.016;2023-08-08T02:47:14;98307.31;;;12.33;67.13
21300;BME280;10809;49.476;11.016;2023-08-08T02:49:46;98307.41;;;12.32;67.40
21300;BME280;10809;49.476;11.016;2023-08-08T02:52:19;98304.75;;;12.32;67.24
21300;BME280;10809;49.476;11.016;2023-08-08T02:54:50;98302.09;;;12.32;67.17
21300;BME280;10809;49.476;11.016;2023-08-08T02:57:21;98298.56;;;12.31;67.16
21300;BME280;10809;49.476;11.016;2023-08-08T02:59:51;98294.13;;;12.32;67.30
21300;BME280;10809;49.476;11.016;2023-08-08T03:02:21;98299.44;;;12.32;67.15
21300;BME280;10809;49.476;11.016;2023-08-08T03:04:53;98295.91;;;12.31;67.14
21300;BME280;10809;49.476;11.016;2023-08-08T03:07:26;98288.81;;;12.32;67.77
21300;BME280;10809;49.476;11.016;2023-08-08T03:09:57;98278.19;;;12.32;67.22
21300;BME280;10809;49.476;11.016;2023-08-08T03:12:27;98273.84;;;12.31;67.23
21300;BME280;10809;49.476;11.016;2023-08-08T03:14:58;98278.19;;;12.32;67.33
21300;BME280;10809;49.476;11.016;2023-08-08T03:17:29;98280.84;;;12.32;67.91
21300;BME280;10809;49.476;11.016;2023-08-08T03:20:01;98278.19;;;12.32;67.61
21300;BME280;10809;49.476;11.016;2023-08-08T03:22:34;98275.53;;;12.32;67.53
21300;BME280;10809;49.476;11.016;2023-08-08T03:25:04;98279.91;;;12.33;67.59
21300;BME280;10809;49.476;11.016;2023-08-08T03:27:35;98285.22;;;12.33;67.63
21300;BME280;10809;49.476;11.016;2023-08-08T03:30:07;98285.22;;;12.33;67.76
21300;BME280;10809;49.476;11.016;2023-08-08T03:32:43;98282.56;;;12.33;67.67
21300;BME280;10809;49.476;11.016;2023-08-08T03:35:14;98279.78;;;12.34;67.58
21300;BME280;10809;49.476;11.016;2023-08-08T03:37:47;98279.91;;;12.33;67.59
21300;BME280;10809;49.476;11.016;2023-08-08T03:40:18;98286.16;;;12.32;67.51
21300;BME280;10809;49.476;11.016;2023-08-08T03:42:48;98284.47;;;12.31;67.61
21300;BME280;10809;49.476;11.016;2023-08-08T03:45:22;98298.66;;;12.30;67.59
21300;BME280;10809;49.476;11.016;2023-08-08T03:47:53;98293.47;;;12.28;67.48
21300;BME280;10809;49.476;11.016;2023-08-08T03:50:24;98291.75;;;12.27;67.54
21300;BME280;10809;49.476;11.016;2023-08-08T03:52:54;98293.66;;;12.25;67.62
21300;BME280;10809;49.476;11.016;2023-08-08T03:55:25;98293.75;;;12.24;67.81
21300;BME280;10809;49.476;11.016;2023-08-08T03:57:55;98298.31;;;12.22;67.66
21300;BME280;10809;49.476;11.016;2023-08-08T04:00:26;98289.59;;;12.20;67.59
21300;BME280;10809;49.476;11.016;2023-08-08T04:02:56;98298.50;;;12.19;67.69
21300;BME280;10809;49.476;11.016;2023-08-08T04:05:27;98295.94;;;12.17;67.78
21300;BME280;10809;49.476;11.016;2023-08-08T04:07:57;98297.84;;;12.15;67.85
21300;BME280;10809;49.476;11.016;2023-08-08T04:10:28;98296.16;;;12.14;67.78
21300;BME280;10809;49.476;11.016;2023-08-08T04:12:58;98294.50;;;12.12;68.01
21300;BME280;10809;49.476;11.016;2023-08-08T04:15:29;98297.25;;;12.10;67.80
21300;BME280;10809;49.476;11.016;2023-08-08T04:18:00;98296.44;;;12.10;67.96
21300;BME280;10809;49.476;11.016;2023-08-08T04:20:30;98307.97;;;12.09;67.97
21300;BME280;10809;49.476;11.016;2023-08-08T04:23:01;98297.34;;;12.09;67.98
21300;BME280;10809;49.476;11.016;2023-08-08T04:25:34;98311.59;;;12.08;67.96
21300;BME280;10809;49.476;11.016;2023-08-08T04:28:05;98311.69;;;12.06;67.82
21300;BME280;10809;49.476;11.016;2023-08-08T04:30:35;98308.16;;;12.06;68.03
21300;BME280;10809;49.476;11.016;2023-08-08T04:33:06;98310.81;;;12.06;68.00
21300;BME280;10809;49.476;11.016;2023-08-08T04:35:36;98308.25;;;12.04;68.05
21300;BME280;10809;49.476;11.016;2023-08-08T04:38:07;98305.69;;;12.03;67.94
21300;BME280;10809;49.476;11.016;2023-08-08T04:40:37;98303.03;;;12.03;68.16
21300;BME280;10809;49.476;11.016;2023-08-08T04:43:08;98305.78;;;12.01;67.67
21300;BME280;10809;49.476;11.016;2023-08-08T04:45:38;98304.09;;;12.00;68.13
21300;BME280;10809;49.476;11.016;2023-08-08T04:48:09;98299.75;;;11.99;67.99
21300;BME280;10809;49.476;11.016;2023-08-08T04:50:42;98301.53;;;11.99;68.05
21300;BME280;10809;49.476;11.016;2023-08-08T04:53:13;98304.28;;;11.97;68.04
21300;BME280;10809;49.476;11.016;2023-08-08T04:55:46;98295.47;;;11.97;68.16
21300;BME280;10809;49.476;11.016;2023-08-08T04:58:17;98296.41;;;11.96;68.12
21300;BME280;10809;49.476;11.016;2023-08-08T05:00:48;98289.41;;;11.95;68.48
21300;BME280;10809;49.476;11.016;2023-08-08T05:03:21;98294.72;;;11.95;68.32
21300;BME280;10809;49.476;11.016;2023-08-08T05:05:52;98300.03;;;11.95;68.37
21300;BME280;10809;49.476;11.016;2023-08-08T05:08:22;98300.03;;;11.95;68.20
21300;BME280;10809;49.476;11.016;2023-08-08T05:10:53;98295.66;;;11.94;68.33
21300;BME280;10809;49.476;11.016;2023-08-08T05:13:26;98303.59;;;11.94;68.35
21300;BME280;10809;49.476;11.016;2023-08-08T05:15:57;98298.22;;;11.95;68.48
21300;BME280;10809;49.476;11.016;2023-08-08T05:18:27;98296.50;;;11.94;68.50
21300;BME280;10809;49.476;11.016;2023-08-08T05:20:58;98298.22;;;11.95;68.53
21300;BME280;10809;49.476;11.016;2023-08-08T05:23:28;98298.13;;;11.97;68.29
21300;BME280;10809;49.476;11.016;2023-08-08T05:25:59;98298.13;;;11.97;68.62
21300;BME280;10809;49.476;11.016;2023-08-08T05:28:29;98302.50;;;11.98;68.56
21300;BME280;10809;49.476;11.016;2023-08-08T05:31:03;98306.84;;;11.99;68.52
21300;BME280;10809;49.476;11.016;2023-08-08T05:33:33;98304.09;;;12.00;69.07
21300;BME280;10809;49.476;11.016;2023-08-08T05:36:04;98307.53;;;12.02;68.57
21300;BME280;10809;49.476;11.016;2023-08-08T05:38:36;98298.59;;;12.03;68.83
21300;BME280;10809;49.476;11.016;2023-08-08T05:41:09;98296.72;;;12.05;69.03
21300;BME280;10809;49.476;11.016;2023-08-08T05:43:40;98295.66;;;12.08;69.13
21300;BME280;10809;49.476;11.016;2023-08-08T05:46:11;98292.91;;;12.09;68.88
21300;BME280;10809;49.476;11.016;2023-08-08T05:48:41;98290.94;;;12.13;68.84
21300;BME280;10809;49.476;11.016;2023-08-08T05:51:12;98293.50;;;12.14;68.71
21300;BME280;10809;49.476;11.016;2023-08-08T05:53:42;98295.09;;;12.17;69.13
21300;BME280;10809;49.476;11.016;2023-08-08T05:56:13;98297.66;;;12.18;68.96
21300;BME280;10809;49.476;11.016;2023-08-08T05:58:47;98301.91;;;12.21;68.80
21300;BME280;10809;49.476;11.016;2023-08-08T06:01:17;98293.84;;;12.22;68.92
21300;BME280;10809;49.476;11.016;2023-08-08T06:03:48;98296.31;;;12.25;69.04
21300;BME280;10809;49.476;11.016;2023-08-08T06:06:19;98290.81;;;12.28;69.05
21300;BME280;10809;49.476;11.016;2023-08-08T06:08:49;98299.44;;;12.32;69.04
21300;BME280;10809;49.476;11.016;2023-08-08T06:11:19;98303.59;;;12.36;69.26
21300;BME280;10809;49.476;11.016;2023-08-08T06:13:51;98308.59;;;12.42;69.32
21300;BME280;10809;49.476;11.016;2023-08-08T06:16:22;98309.91;;;12.49;69.47
21300;BME280;10809;49.476;11.016;2023-08-08T06:18:53;98306.84;;;12.55;69.33
21300;BME280;10809;49.476;11.016;2023-08-08T06:21:26;98301.16;;;12.61;69.31
21300;BME280;10809;49.476;11.016;2023-08-08T06:23:57;98294.56;;;12.66;69.40
21300;BME280;10809;49.476;11.016;2023-08-08T06:26:27;98294.19;;;12.72;69.35
21300;BME280;10809;49.476;11.016;2023-08-08T06:28:58;98292.94;;;12.78;69.26
21300;BME280;10809;49.476;11.016;2023-08-08T06:31:29;98296.25;;;12.81;69.17
21300;BME280;10809;49.476;11.016;2023-08-08T06:34:00;98300.31;;;12.87;69.13
21300;BME280;10809;49.476;11.016;2023-08-08T06:36:30;98303.63;;;12.90;69.40
21300;BME280;10809;49.476;11.016;2023-08-08T06:39:01;98291.75;;;12.96;69.28
21300;BME280;10809;49.476;11.016;2023-08-08T06:41:31;98289.56;;;13.02;69.55
21300;BME280;10809;49.476;11.016;2023-08-08T06:44:02;98288.28;;;13.08;69.70
21300;BME280;10809;49.476;11.016;2023-08-08T06:46:32;98293.88;;;13.18;69.82
21300;BME280;10809;49.476;11.016;2023-08-08T06:49:03;98288.75;;;13.27;69.97
21300;BME280;10809;49.476;11.016;2023-08-08T06:51:34;98281.03;;;13.37;70.23
21300;BME280;10809;49.476;11.016;2023-08-08T06:54:05;98285.44;;;13.50;70.40
21300;BME280;10809;49.476;11.016;2023-08-08T06:56:36;98281.13;;;13.62;70.19
21300;BME280;10809;49.476;11.016;2023-08-08T06:59:06;98283.78;;;13.74;69.73
21300;BME280;10809;49.476;11.016;2023-08-08T07:01:37;98281.34;;;13.84;69.29
21300;BME280;10809;49.476;11.016;2023-08-08T07:04:07;98274.72;;;13.89;69.01
21300;BME280;10809;49.476;11.016;2023-08-08T07:06:38;98283.25;;;13.94;68.72
21300;BME280;10809;49.476;11.016;2023-08-08T07:09:08;98274.13;;;13.98;68.83
21300;BME280;10809;49.476;11.016;2023-08-08T07:11:40;98271.97;;;14.03;69.15
21300;BME280;10809;49.476;11.016;2023-08-08T07:14:11;98264.28;;;14.11;69.33
21300;BME280;10809;49.476;11.016;2023-08-08T07:16:41;98270.66;;;14.21;69.38
21300;BME280;10809;49.476;11.016;2023-08-08T07:19:12;98267.34;;;14.30;69.14
21300;BME280;10809;49.476;11.016;2023-08-08T07:21:42;98269.25;;;14.41;69.32
21300;BME280;10809;49.476;11.016;2023-08-08T07:24:13;98260.44;;;14.53;69.70
21300;BME280;10809;49.476;11.016;2023-08-08T07:26:43;98263.03;;;14.65;69.79
21300;BME280;10809;49.476;11.016;2023-08-08T07:29:14;98267.13;;;14.82;70.10
21300;BME280;10809;49.476;11.016;2023-08-08T07:31:45;98270.06;;;15.03;70.17
21300;BME280;10809;49.476;11.016;2023-08-08T07:34:19;98255.22;;;15.22;69.71
21300;BME280;10809;49.476;11.016;2023-08-08T07:36:49;98261.75;;;15.42;69.53
21300;BME280;10809;49.476;11.016;2023-08-08T07:39:20;98256.09;;;15.57;68.87
21300;BME280;10809;49.476;11.016;2023-08-08T07:41:50;98256.16;;;15.68;68.05
21300;BME280;10809;49.476;11.016;2023-08-08T07:44:21;98253.81;;;15.75;67.63
21300;BME280;10809;49.476;11.016;2023-08-08T07:46:51;98247.78;;;15.84;67.77
21300;BME280;10809;49.476;11.016;2023-08-08T07:49:22;98243.69;;;15.91;68.03
21300;BME280;10809;49.476;11.016;2023-08-08T07:51:52;98242.72;;;16.03;68.24
21300;BME280;10809;49.476;11.016;2023-08-08T07:54:26;98238.09;;;16.16;68.33
21300;BME280;10809;49.476;11.016;2023-08-08T07:56:56;98241.53;;;16.29;68.29
21300;BME280;10809;49.476;11.016;2023-08-08T07:59:27;98241.25;;;16.43;68.22
21300;BME280;10809;49.476;11.016;2023-08-08T08:01:57;98245.53;;;16.57;68.19
21300;BME280;10809;49.476;11.016;2023-08-08T08:04:28;98241.59;;;16.72;68.02
21300;BME280;10809;49.476;11.016;2023-08-08T08:06:58;98243.84;;;16.87;67.98
21300;BME280;10809;49.476;11.016;2023-08-08T08:09:29;98237.03;;;17.05;67.96
21300;BME280;10809;49.476;11.016;2023-08-08T08:11:59;98232.84;;;17.23;68.34
21300;BME280;10809;49.476;11.016;2023-08-08T08:14:30;98232.00;;;17.43;67.36
21300;BME280;10809;49.476;11.016;2023-08-08T08:17:00;98233.41;;;17.58;66.49
21300;BME280;10809;49.476;11.016;2023-08-08T08:19:31;98235.03;;;17.70;65.87
21300;BME280;10809;49.476;11.016;2023-08-08T08:22:01;98224.47;;;17.78;65.00
21300;BME280;10809;49.476;11.016;2023-08-08T08:24:32;98227.63;;;17.83;65.13
21300;BME280;10809;49.476;11.016;2023-08-08T08:27:03;98212.72;;;17.90;64.69
21300;BME280;10809;49.476;11.016;2023-08-08T08:29:33;98221.84;;;17.99;64.68
21300;BME280;10809;49.476;11.016;2023-08-08T08:32:04;98210.91;;;18.12;64.80
21300;BME280;10809;49.476;11.016;2023-08-08T08:34:35;98222.69;;;18.30;64.64
21300;BME280;10809;49.476;11.016;2023-08-08T08:37:05;98229.38;;;18.45;63.71
21300;BME280;10809;49.476;11.016;2023-08-08T08:39:36;98218.63;;;18.54;62.83
21300;BME280;10809;49.476;11.016;2023-08-08T08:42:06;98217.84;;;18.63;63.17
21300;BME280;10809;49.476;11.016;2023-08-08T08:44:38;98218.84;;;18.72;63.42
21300;BME280;10809;49.476;11.016;2023-08-08T08:47:12;98216.09;;;18.83;63.17
21300;BME280;10809;49.476;11.016;2023-08-08T08:49:46;98219.34;;;18.96;62.72
21300;BME280;10809;49.476;11.016;2023-08-08T08:52:16;98208.75;;;19.04;62.09
21300;BME280;10809;49.476;11.016;2023-08-08T08:54:47;98212.88;;;19.17;62.06
21300;BME280;10809;49.476;11.016;2023-08-08T08:57:17;98221.75;;;19.27;61.73
21300;BME280;10809;49.476;11.016;2023-08-08T08:59:50;98226.41;;;19.35;61.38
21300;BME280;10809;49.476;11.016;2023-08-08T09:02:21;98209.19;;;19.37;60.18
21300;BME280;10809;49.476;11.016;2023-08-08T09:04:52;98215.69;;;19.35;59.73
21300;BME280;10809;49.476;11.016;2023-08-08T09:07:24;98214.84;;;19.25;58.87
21300;BME280;10809;49.476;11.016;2023-08-08T09:09:57;98217.66;;;19.14;59.04
21300;BME280;10809;49.476;11.016;2023-08-08T09:12:27;98215.97;;;19.03;59.08
21300;BME280;10809;49.476;11.016;2023-08-08T09:14:58;98219.63;;;18.93;59.25
21300;BME280;10809;49.476;11.016;2023-08-08T09:17:28;98209.59;;;18.85;59.15
21300;BME280;10809;49.476;11.016;2023-08-08T09:19:59;98204.78;;;18.79;59.36
21300;BME280;10809;49.476;11.016;2023-08-08T09:22:29;98205.28;;;18.73;59.08
21300;BME280;10809;49.476;11.016;2023-08-08T09:25:01;98205.72;;;18.69;59.55
21300;BME280;10809;49.476;11.016;2023-08-08T09:27:35;98209.38;;;18.68;59.64
21300;BME280;10809;49.476;11.016;2023-08-08T09:30:09;98211.34;;;18.66;59.46
21300;BME280;10809;49.476;11.016;2023-08-08T09:32:43;98207.41;;;18.60;58.78
21300;BME280;10809;49.476;11.016;2023-08-08T09:35:15;98205.22;;;18.54;58.41
21300;BME280;10809;49.476;11.016;2023-08-08T09:37:46;98210.31;;;18.48;58.28
21300;BME280;10809;49.476;11.016;2023-08-08T09:40:32;98202.97;;;18.40;58.26
21300;BME280;10809;49.476;11.016;2023-08-08T09:43:03;98211.53;;;18.34;57.91
21300;BME280;10809;49.476;11.016;2023-08-08T09:45:37;98196.13;;;18.27;57.85
21300;BME280;10809;49.476;11.016;2023-08-08T09:48:08;98194.97;;;18.20;58.16
21300;BME280;10809;49.476;11.016;2023-08-08T09:50:39;98193.41;;;18.17;58.14
21300;BME280;10809;49.476;11.016;2023-08-08T09:53:11;98190.72;;;18.17;58.28
21300;BME280;10809;49.476;11.016;2023-08-08T09:55:42;98193.28;;;18.19;58.77
21300;BME280;10809;49.476;11.016;2023-08-08T09:58:13;98188.38;;;18.24;58.85
21300;BME280;10809;49.476;11.016;2023-08-08T10:00:44;98186.97;;;18.29;59.30
21300;BME280;10809;49.476;11.016;2023-08-08T10:03:16;98187.28;;;18.36;59.02
21300;BME280;10809;49.476;11.016;2023-08-08T10:05:47;98189.41;;;18.42;58.42
21300;BME280;10809;49.476;11.016;2023-08-08T10:08:18;98192.50;;;18.47;58.00
21300;BME280;10809;49.476;11.016;2023-08-08T10:10:50;98185.19;;;18.49;58.12
21300;BME280;10809;49.476;11.016;2023-08-08T10:13:24;98196.63;;;18.51;57.79
21300;BME280;10809;49.476;11.016;2023-08-08T10:15:55;98196.63;;;18.51;57.49
21300;BME280;10809;49.476;11.016;2023-08-08T10:18:27;98193.22;;;18.49;57.31
21300;BME280;10809;49.476;11.016;2023-08-08T10:20:57;98196.91;;;18.48;57.18
21300;BME280;10809;49.476;11.016;2023-08-08T10:23:38;98195.19;;;18.47;57.07
21300;BME280;10809;49.476;11.016;2023-08-08T10:26:21;98196.91;;;18.48;57.40
21300;BME280;10809;49.476;11.016;2023-08-08T10:28:56;98186.06;;;18.49;57.51
21300;BME280;10809;49.476;11.016;2023-08-08T10:31:32;98177.59;;;18.54;57.00
21300;BME280;10809;49.476;11.016;2023-08-08T10:34:04;98197.63;;;18.59;56.89
21300;BME280;10809;49.476;11.016;2023-08-08T10:36:51;98182.69;;;18.66;56.55
21300;BME280;10809;49.476;11.016;2023-08-08T10:39:24;98185.56;;;18.74;56.39
21300;BME280;10809;49.476;11.016;2023-08-08T10:42:00;98179.63;;;18.80;56.37
21300;BME280;10809;49.476;11.016;2023-08-08T10:44:31;98173.00;;;18.84;56.29
21300;BME280;10809;49.476;11.016;2023-08-08T10:47:11;98160.00;;;18.89;55.92
21300;BME280;10809;49.476;11.016;2023-08-08T10:49:41;98166.94;;;18.92;55.71
21300;BME280;10809;49.476;11.016;2023-08-08T10:52:19;98164.94;;;18.94;55.11
21300;BME280;10809;49.476;11.016;2023-08-08T10:54:55;98164.81;;;18.95;55.56
21300;BME280;10809;49.476;11.016;2023-08-08T10:57:30;98168.22;;;18.97;54.90
21300;BME280;10809;49.476;11.016;2023-08-08T11:00:17;98165.38;;;18.99;55.47
21300;BME280;10809;49.476;11.016;2023-08-08T11:02:48;98174.84;;;19.03;55.51
21300;BME280;10809;49.476;11.016;2023-08-08T11:05:19;98167.38;;;19.06;54.93
21300;BME280;10809;49.476;11.016;2023-08-08T11:07:53;98171.47;;;19.10;54.90
21300;BME280;10809;49.476;11.016;2023-08-08T11:10:25;98167.78;;;19.11;54.07
21300;BME280;10809;49.476;11.016;2023-08-08T11:13:03;98172.16;;;19.12;53.92
21300;BME280;10809;49.476;11.016;2023-08-08T11:15:36;98178.38;;;19.13;53.86
21300;BME280;10809;49.476;11.016;2023-08-08T11:18:07;98163.16;;;19.13;53.33
21300;BME280;10809;49.476;11.016;2023-08-08T11:20:39;98166.50;;;19.15;53.50
21300;BME280;10809;49.476;11.016;2023-08-08T11:23:10;98158.31;;;19.17;53.51
21300;BME280;10809;49.476;11.016;2023-08-08T11:25:44;98151.84;;;19.19;53.73
21300;BME280;10809;49.476;11.016;2023-08-08T11:28:15;98161.28;;;19.23;53.84
21300;BME280;10809;49.476;11.016;2023-08-08T11:30:45;98168.91;;;19.28;53.70
21300;BME280;10809;49.476;11.016;2023-08-08T11:33:16;98165.94;;;19.31;53.44
21300;BME280;10809;49.476;11.016;2023-08-08T11:35:48;98178.94;;;19.35;53.03
21300;BME280;10809;49.476;11.016;2023-08-08T11:38:19;98152.94;;;19.36;52.78
21300;BME280;10809;49.476;11.016;2023-08-08T11:40:50;98159.72;;;19.40;53.06
21300;BME280;10809;49.476;11.016;2023-08-08T11:43:22;98165.78;;;19.42;52.79
21300;BME280;10809;49.476;11.016;2023-08-08T11:45:53;98161.81;;;19.46;52.66
21300;BME280;10809;49.476;11.016;2023-08-08T11:48:24;98152.63;;;19.48;52.59
21300;BME280;10809;49.476;11.016;2023-08-08T11:50:55;98160.53;;;19.50;52.21
21300;BME280;10809;49.476;11.016;2023-08-08T11:53:29;98158.31;;;19.55;52.38
21300;BME280;10809;49.476;11.016;2023-08-08T11:56:00;98151.94;;;19.56;52.10
21300;BME280;10809;49.476;11.016;2023-08-08T11:58:30;98158.72;;;19.60;52.29
21300;BME280;10809;49.476;11.016;2023-08-08T12:01:02;98152.06;;;19.64;52.40
21300;BME280;10809;49.476;11.016;2023-08-08T12:03:37;98161.41;;;19.69;52.51
21300;BME280;10809;49.476;11.016;2023-08-08T12:06:13;98149.06;;;19.76;52.06
21300;BME280;10809;49.476;11.016;2023-08-08T12:08:47;98135.91;;;19.83;52.43
21300;BME280;10809;49.476;11.016;2023-08-08T12:11:19;98146.72;;;19.91;51.71
21300;BME280;10809;49.476;11.016;2023-08-08T12:13:49;98131.88;;;19.97;51.50
21300;BME280;10809;49.476;11.016;2023-08-08T12:16:28;98137.47;;;20.03;51.40
21300;BME280;10809;49.476;11.016;2023-08-08T12:19:07;98137.91;;;20.08;51.36
21300;BME280;10809;49.476;11.016;2023-08-08T12:21:37;98136.63;;;20.12;51.29
21300;BME280;10809;49.476;11.016;2023-08-08T12:24:14;98135.31;;;20.16;50.80
21300;BME280;10809;49.476;11.016;2023-08-08T12:26:44;98131.31;;;20.20;50.36
21300;BME280;10809;49.476;11.016;2023-08-08T12:29:15;98124.97;;;20.21;50.30
21300;BME280;10809;49.476;11.016;2023-08-08T12:31:45;98134.56;;;20.24;50.34
21300;BME280;10809;49.476;11.016;2023-08-08T12:34:16;98128.94;;;20.27;50.38
21300;BME280;10809;49.476;11.016;2023-08-08T12:36:46;98131.16;;;20.31;50.63
21300;BME280;10809;49.476;11.016;2023-08-08T12:39:17;98137.91;;;20.35;50.80
21300;BME280;10809;49.476;11.016;2023-08-08T12:41:47;98133.66;;;20.42;51.07
21300;BME280;10809;49.476;11.016;2023-08-08T12:44:18;98142.81;;;20.49;50.54
21300;BME280;10809;49.476;11.016;2023-08-08T12:46:48;98146.56;;;20.56;50.47
21300;BME280;10809;49.476;11.016;2023-08-08T12:49:19;98134.38;;;20.62;49.96
21300;BME280;10809;49.476;11.016;2023-08-08T12:51:50;98131.53;;;20.63;49.78
21300;BME280;10809;49.476;11.016;2023-08-08T12:54:21;98152.91;;;20.65;49.34
21300;BME280;10809;49.476;11.016;2023-08-08T12:56:52;98137.78;;;20.64;48.99
21300;BME280;10809;49.476;11.016;2023-08-08T12:59:22;98138.03;;;20.61;48.76
21300;BME280;10809;49.476;11.016;2023-08-08T13:01:56;98136.66;;;20.57;49.14
21300;BME280;10809;49.476;11.016;2023-08-08T13:04:27;98137.13;;;20.52;48.71
21300;BME280;10809;49.476;11.016;2023-08-08T13:06:57;98133.34;;;20.45;49.04
21300;BME280;10809;49.476;11.016;2023-08-08T13:09:28;98149.09;;;20.40;49.21
21300;BME280;10809;49.476;11.016;2023-08-08T13:11:58;98129.84;;;20.35;48.83
21300;BME280;10809;49.476;11.016;2023-08-08T13:14:29;98124.09;;;20.30;48.93
21300;BME280;10809;49.476;11.016;2023-08-08T13:16:59;98134.16;;;20.28;48.76
21300;BME280;10809;49.476;11.016;2023-08-08T13:19:30;98114.63;;;20.26;49.21